createdAt,value
2022-10-10T00:00:59.975Z,12.19
2022-10-10T00:03:27.264Z,12.26
2022-10-10T00:05:54.339Z,12.34
2022-10-10T00:08:21.330Z,12.41
2022-10-10T00:10:48.466Z,12.37
2022-10-10T00:13:15.937Z,12.46
2022-10-10T00:15:46.798Z,12.52
2022-10-10T00:18:16.506Z,12.55
2022-10-10T00:20:43.408Z,12.58
2022-10-10T00:23:10.348Z,12.62
2022-10-10T00:25:38.068Z,12.66
2022-10-10T00:28:06.104Z,12.70
2022-10-10T00:30:33.196Z,12.74
2022-10-10T00:33:01.059Z,12.81
2022-10-10T00:35:28.527Z,12.81
2022-10-10T00:37:55.556Z,12.81
2022-10-10T00:40:23.007Z,12.84
2022-10-10T00:42:50.310Z,12.86
2022-10-10T00:45:26.408Z,12.92
2022-10-10T00:48:00.048Z,12.95
2022-10-10T00:50:28.717Z,12.95
2022-10-10T00:52:56.506Z,12.96
2022-10-10T00:55:23.965Z,12.98
2022-10-10T00:57:51.616Z,13.00
2022-10-10T01:00:19.088Z,13.01
2022-10-10T01:02:46.107Z,13.03
2022-10-10T01:05:13.116Z,13.04
2022-10-10T01:07:40.747Z,13.03
2022-10-10T01:10:16.834Z,13.04
2022-10-10T01:12:50.153Z,13.06
2022-10-10T01:15:35.216Z,13.09
2022-10-10T01:18:10.857Z,13.07
2022-10-10T01:20:56.056Z,13.09
2022-10-10T01:23:50.777Z,13.13
2022-10-10T01:26:34.996Z,13.13
2022-10-10T01:29:07.897Z,13.12
2022-10-10T01:31:39.937Z,13.13
2022-10-10T01:34:18.976Z,13.12
2022-10-10T01:36:57.121Z,13.13
2022-10-10T01:39:41.577Z,13.06
2022-10-10T01:42:19.418Z,13.05
2022-10-10T01:44:47.558Z,13.03
2022-10-10T01:47:14.976Z,12.97
2022-10-10T01:49:45.038Z,13.00
2022-10-10T01:52:14.940Z,12.96
2022-10-10T01:55:12.616Z,12.86
2022-10-10T01:58:14.356Z,12.78
2022-10-10T02:00:59.285Z,12.77
2022-10-10T02:03:32.120Z,12.71
2022-10-10T02:06:18.838Z,12.71
2022-10-10T02:08:59.258Z,12.70
2022-10-10T02:11:29.232Z,12.72
2022-10-10T02:14:21.879Z,12.78
2022-10-10T02:16:52.216Z,12.78
2022-10-10T02:19:21.977Z,12.80
2022-10-10T02:21:52.116Z,12.79
2022-10-10T02:24:22.140Z,12.78
2022-10-10T02:26:56.298Z,12.80
2022-10-10T02:29:29.196Z,12.79
2022-10-10T02:32:21.197Z,12.79
2022-10-10T02:34:55.757Z,12.77
2022-10-10T02:37:24.658Z,12.80
2022-10-10T02:39:57.897Z,12.80
2022-10-10T02:42:26.817Z,12.81
2022-10-10T02:44:55.097Z,12.84
2022-10-10T02:47:21.976Z,12.86
2022-10-10T02:49:49.240Z,12.87
2022-10-10T02:52:17.338Z,12.88
2022-10-10T02:54:44.458Z,12.93
2022-10-10T02:57:11.597Z,12.88
2022-10-10T02:59:38.578Z,12.80
2022-10-10T03:02:06.617Z,12.83
2022-10-10T03:04:35.056Z,12.82
2022-10-10T03:07:03.356Z,12.84
2022-10-10T03:09:30.257Z,12.85
2022-10-10T03:11:57.437Z,12.82
2022-10-10T03:14:24.475Z,12.79
2022-10-10T03:16:51.556Z,12.83
2022-10-10T03:19:18.556Z,12.83
2022-10-10T03:21:45.704Z,12.82
2022-10-10T03:24:12.677Z,12.80
2022-10-10T03:26:39.736Z,12.82
2022-10-10T03:29:06.818Z,12.85
2022-10-10T03:31:33.836Z,12.82
2022-10-10T03:34:00.977Z,12.83
2022-10-10T03:36:28.641Z,12.80
2022-10-10T03:38:55.638Z,12.73
2022-10-10T03:41:22.758Z,12.78
2022-10-10T03:43:49.737Z,12.74
2022-10-10T03:46:16.805Z,12.72
2022-10-10T03:48:44.122Z,12.70
2022-10-10T03:51:11.477Z,12.72
2022-10-10T03:53:38.677Z,12.74
2022-10-10T03:56:06.156Z,12.72
2022-10-10T03:58:33.238Z,12.71
2022-10-10T04:01:02.473Z,12.71
2022-10-10T04:03:30.324Z,12.68
2022-10-10T04:05:57.397Z,12.72
2022-10-10T04:08:24.996Z,12.69
2022-10-10T04:10:53.615Z,12.68
2022-10-10T04:13:21.943Z,12.66
2022-10-10T04:15:52.956Z,12.77
2022-10-10T04:18:20.676Z,12.74
2022-10-10T04:20:47.856Z,12.77
2022-10-10T04:23:15.111Z,12.84
2022-10-10T04:25:43.287Z,12.86
2022-10-10T04:28:15.057Z,12.92
2022-10-10T04:30:42.426Z,12.95
2022-10-10T04:33:09.831Z,12.96
2022-10-10T04:35:37.504Z,12.97
2022-10-10T04:38:05.381Z,12.91
2022-10-10T04:40:33.087Z,12.82
2022-10-10T04:43:00.621Z,12.88
2022-10-10T04:45:28.017Z,12.94
2022-10-10T04:47:55.864Z,12.95
2022-10-10T04:50:24.117Z,12.98
2022-10-10T04:52:51.483Z,12.91
2022-10-10T04:55:19.024Z,12.91
2022-10-10T04:57:46.457Z,12.94
2022-10-10T05:00:13.929Z,12.93
2022-10-10T05:02:41.138Z,12.92
2022-10-10T05:05:08.859Z,12.97
2022-10-10T05:07:36.056Z,12.98
2022-10-10T05:10:03.381Z,13.02
2022-10-10T05:12:30.623Z,13.04
2022-10-10T05:14:57.819Z,13.04
2022-10-10T05:17:25.217Z,13.08
2022-10-10T05:19:52.667Z,13.09
2022-10-10T05:22:19.898Z,13.10
2022-10-10T05:24:47.158Z,13.12
2022-10-10T05:27:14.456Z,13.13
2022-10-10T05:29:41.701Z,13.15
2022-10-10T05:32:10.480Z,13.16
2022-10-10T05:34:38.944Z,13.16
2022-10-10T05:37:06.179Z,13.18
2022-10-10T05:39:33.587Z,13.17
2022-10-10T05:42:00.738Z,13.18
2022-10-10T05:44:28.104Z,13.19
2022-10-10T05:46:55.196Z,13.21
2022-10-10T05:49:22.500Z,13.21
2022-10-10T05:51:49.700Z,13.23
2022-10-10T05:54:17.022Z,13.25
2022-10-10T05:56:44.561Z,13.26
2022-10-10T05:59:11.782Z,13.28
2022-10-10T06:01:38.981Z,13.30
2022-10-10T06:04:06.356Z,13.32
2022-10-10T06:06:33.703Z,13.34
2022-10-10T06:09:00.943Z,13.33
2022-10-10T06:11:28.184Z,13.36
2022-10-10T06:13:55.784Z,13.40
2022-10-10T06:16:24.380Z,13.39
2022-10-10T06:18:52.820Z,13.45
2022-10-10T06:21:20.383Z,13.42
2022-10-10T06:23:47.621Z,13.42
2022-10-10T06:26:15.827Z,13.43
2022-10-10T06:28:43.002Z,13.45
2022-10-10T06:31:12.818Z,13.47
2022-10-10T06:33:42.584Z,13.50
2022-10-10T06:36:10.789Z,13.53
2022-10-10T06:38:38.861Z,13.60
2022-10-10T06:41:07.058Z,13.61
2022-10-10T06:43:34.339Z,13.61
2022-10-10T06:46:02.420Z,13.63
2022-10-10T06:48:35.185Z,13.67
2022-10-10T06:51:08.620Z,13.69
2022-10-10T06:53:36.383Z,13.68
2022-10-10T06:56:04.260Z,13.67
2022-10-10T06:58:32.501Z,13.68
2022-10-10T07:01:01.177Z,13.72
2022-10-10T07:03:30.232Z,13.69
2022-10-10T07:06:00.937Z,13.70
2022-10-10T07:08:29.542Z,13.69
2022-10-10T07:10:57.542Z,13.73
2022-10-10T07:13:24.818Z,13.70
2022-10-10T07:15:52.218Z,13.73
2022-10-10T07:18:20.061Z,13.80
2022-10-10T07:20:47.743Z,13.83
2022-10-10T07:23:15.347Z,13.85
2022-10-10T07:25:43.499Z,13.92
2022-10-10T07:28:11.205Z,14.00
2022-10-10T07:30:45.937Z,14.03
2022-10-10T07:33:14.344Z,14.07
2022-10-10T07:35:42.224Z,14.15
2022-10-10T07:38:11.785Z,14.21
2022-10-10T07:40:41.909Z,14.32
2022-10-10T07:43:09.313Z,14.38
2022-10-10T07:45:37.464Z,14.46
2022-10-10T07:48:04.822Z,14.46
2022-10-10T07:50:31.980Z,14.48
2022-10-10T07:52:59.419Z,14.53
2022-10-10T07:55:26.901Z,14.58
2022-10-10T07:57:54.444Z,14.61
2022-10-10T08:00:22.100Z,14.63
2022-10-10T08:02:49.337Z,14.69
2022-10-10T08:05:16.582Z,14.75
2022-10-10T08:07:43.940Z,14.80
2022-10-10T08:10:11.104Z,14.89
2022-10-10T08:12:38.339Z,14.94
2022-10-10T08:15:07.050Z,15.00
2022-10-10T08:17:34.540Z,15.07
2022-10-10T08:20:01.904Z,15.07
2022-10-10T08:22:29.258Z,15.15
2022-10-10T08:24:56.461Z,15.23
2022-10-10T08:27:23.700Z,15.31
2022-10-10T08:29:51.043Z,15.40
2022-10-10T08:32:18.384Z,15.44
2022-10-10T08:34:45.779Z,15.45
2022-10-10T08:37:13.096Z,15.56
2022-10-10T08:39:40.360Z,15.61
2022-10-10T08:42:14.580Z,15.77
2022-10-10T08:44:56.260Z,15.94
2022-10-10T08:47:45.577Z,16.13
2022-10-10T08:50:24.390Z,16.33
2022-10-10T08:53:00.857Z,16.34
2022-10-10T08:55:34.057Z,16.45
2022-10-10T08:58:20.053Z,16.67
2022-10-10T09:00:50.857Z,16.65
2022-10-10T09:03:30.944Z,16.69
2022-10-10T09:06:13.142Z,16.74
2022-10-10T09:08:54.184Z,16.83
2022-10-10T09:11:56.822Z,16.82
2022-10-10T09:14:45.258Z,16.87
2022-10-10T09:17:31.310Z,16.78
2022-10-10T09:20:33.699Z,16.91
2022-10-10T09:23:17.023Z,17.05
2022-10-10T09:25:53.704Z,17.17
2022-10-10T09:28:39.284Z,17.11
2022-10-10T09:31:38.856Z,17.12
2022-10-10T09:34:15.701Z,17.41
2022-10-10T09:36:44.621Z,17.37
2022-10-10T09:39:47.028Z,17.57
2022-10-10T09:42:16.146Z,17.77
2022-10-10T09:44:44.185Z,17.78
2022-10-10T09:47:15.144Z,17.94
2022-10-10T09:49:44.176Z,18.20
2022-10-10T09:52:32.298Z,18.42
2022-10-10T09:55:07.581Z,18.54
2022-10-10T09:57:39.860Z,18.69
2022-10-10T10:00:19.264Z,18.72
2022-10-10T10:02:51.061Z,18.66
2022-10-10T10:05:26.460Z,18.95
2022-10-10T10:07:53.979Z,19.08
2022-10-10T10:10:24.707Z,19.23
2022-10-10T10:12:52.707Z,19.41
2022-10-10T10:15:30.096Z,19.58
2022-10-10T10:18:39.260Z,19.83
2022-10-10T10:21:12.627Z,20.05
2022-10-10T10:24:08.744Z,20.29
2022-10-10T10:26:41.940Z,20.64
2022-10-10T10:29:32.256Z,20.89
2022-10-10T10:32:32.898Z,21.11
2022-10-10T10:35:00.115Z,21.26
2022-10-10T10:38:04.139Z,21.51
2022-10-10T10:40:42.661Z,21.65
2022-10-10T10:43:35.255Z,21.78
2022-10-10T10:46:30.700Z,21.97
2022-10-10T10:49:05.457Z,22.08
2022-10-10T10:51:47.658Z,22.20
2022-10-10T10:54:40.352Z,22.28
2022-10-10T10:57:31.775Z,22.22
2022-10-10T11:00:41.296Z,22.23
2022-10-10T11:13:31.744Z,21.83
2022-10-10T11:16:46.966Z,21.93
2022-10-10T11:19:11.465Z,22.09
2022-10-10T11:21:46.779Z,22.36
2022-10-10T11:24:41.899Z,22.66
2022-10-10T11:27:20.539Z,22.84
2022-10-10T11:30:13.588Z,23.08
2022-10-10T11:32:54.303Z,23.36
2022-10-10T11:36:00.817Z,23.53
2022-10-10T11:38:47.502Z,23.91
2022-10-10T11:41:29.338Z,24.09
2022-10-10T11:44:29.577Z,24.19
2022-10-10T11:47:06.820Z,24.33
2022-10-10T11:49:52.261Z,24.65
2022-10-10T11:52:34.892Z,24.45
2022-10-10T11:55:20.429Z,24.66
2022-10-10T11:58:01.259Z,24.83
2022-10-10T12:00:29.426Z,25.08
2022-10-10T12:02:57.779Z,25.19
2022-10-10T12:05:28.737Z,25.13
2022-10-10T12:08:00.259Z,25.38
2022-10-10T12:10:35.551Z,25.54
2022-10-10T12:13:28.981Z,25.45
2022-10-10T12:15:59.137Z,25.18
2022-10-10T12:18:29.460Z,25.17
2022-10-10T12:21:06.620Z,25.40
2022-10-10T12:23:34.096Z,25.67
2022-10-10T12:26:01.784Z,25.59
2022-10-10T12:28:33.977Z,25.93
2022-10-10T12:31:07.261Z,25.90
2022-10-10T12:33:34.424Z,26.06
2022-10-10T12:36:19.981Z,26.01
2022-10-10T12:39:03.581Z,25.91
2022-10-10T12:41:47.284Z,25.78
2022-10-10T12:44:36.106Z,25.59
2022-10-10T12:47:15.385Z,26.02
2022-10-10T12:50:01.656Z,26.01
2022-10-10T12:52:38.376Z,26.21
2022-10-10T12:55:08.150Z,26.21
2022-10-10T12:57:43.177Z,26.21
2022-10-10T13:00:28.096Z,26.26
2022-10-10T13:03:01.856Z,26.09
2022-10-10T13:05:36.379Z,25.84
2022-10-10T13:08:07.462Z,25.25
2022-10-10T13:10:34.858Z,25.06
2022-10-10T13:13:28.339Z,24.53
2022-10-10T13:15:57.986Z,24.80
2022-10-10T13:18:36.338Z,24.76
2022-10-10T13:21:06.565Z,25.19
2022-10-10T13:23:36.697Z,25.65
2022-10-10T13:26:04.538Z,26.27
2022-10-10T13:28:31.909Z,26.89
2022-10-10T13:30:59.601Z,27.46
2022-10-10T13:33:33.743Z,28.15
2022-10-10T13:36:07.496Z,28.44
2022-10-10T13:38:36.146Z,28.89
2022-10-10T13:41:05.538Z,29.45
2022-10-10T13:43:33.819Z,29.91
2022-10-10T13:46:02.416Z,30.57
2022-10-10T13:48:32.386Z,30.54
2022-10-10T13:51:06.829Z,30.81
2022-10-10T13:53:52.503Z,31.05
2022-10-10T13:56:29.701Z,31.66
2022-10-10T13:59:04.988Z,31.67
2022-10-10T14:01:39.208Z,32.15
2022-10-10T14:04:23.022Z,32.59
2022-10-10T14:06:56.061Z,32.31
2022-10-10T14:09:26.098Z,31.61
2022-10-10T14:11:55.582Z,30.75
2022-10-10T14:14:48.138Z,29.39
2022-10-10T14:17:16.219Z,29.53
2022-10-10T14:19:45.700Z,28.52
2022-10-10T14:22:13.258Z,28.03
2022-10-10T14:24:40.817Z,27.24
2022-10-10T14:27:20.282Z,25.99
2022-10-10T14:29:48.216Z,25.56
2022-10-10T14:32:16.300Z,24.92
2022-10-10T14:34:44.018Z,24.47
2022-10-10T14:37:26.055Z,23.99
2022-10-10T14:39:54.310Z,23.85
2022-10-10T14:42:22.780Z,23.53
2022-10-10T14:44:50.105Z,23.22
2022-10-10T14:47:19.658Z,23.11
2022-10-10T14:49:47.425Z,22.88
2022-10-10T14:52:15.895Z,22.69
2022-10-10T14:54:43.261Z,22.40
2022-10-10T14:57:12.980Z,22.23
2022-10-10T14:59:47.865Z,22.09
2022-10-10T15:02:22.271Z,21.94
2022-10-10T15:04:50.034Z,21.79
2022-10-10T15:07:18.416Z,21.59
2022-10-10T15:10:17.559Z,21.41
2022-10-10T15:12:37.619Z,21.22
2022-10-10T15:15:06.056Z,21.08
2022-10-10T15:17:34.771Z,20.95
2022-10-10T15:20:04.063Z,20.80
2022-10-10T15:22:31.797Z,20.74
2022-10-10T15:24:59.181Z,20.59
2022-10-10T15:27:28.415Z,20.50
2022-10-10T15:29:55.902Z,20.40
2022-10-10T15:32:23.203Z,20.34
2022-10-10T15:34:51.422Z,20.24
2022-10-10T15:37:19.538Z,20.15
2022-10-10T15:39:46.696Z,20.01
2022-10-10T15:42:21.302Z,19.92
2022-10-10T15:44:50.342Z,19.77
2022-10-10T15:47:18.621Z,19.65
2022-10-10T15:49:46.018Z,19.61
2022-10-10T15:52:13.465Z,19.52
2022-10-10T15:54:40.864Z,19.42
2022-10-10T15:57:08.132Z,19.33
2022-10-10T15:59:37.927Z,19.19
2022-10-10T16:02:08.017Z,19.12
2022-10-10T16:04:35.217Z,18.90
2022-10-10T16:09:49.936Z,18.80
2022-10-10T16:12:17.230Z,18.81
2022-10-10T16:14:44.541Z,18.68
2022-10-10T16:17:22.216Z,18.66
2022-10-10T16:19:50.624Z,18.65
2022-10-10T16:22:17.856Z,18.61
2022-10-10T16:24:58.259Z,18.58
2022-10-10T16:27:32.456Z,18.50
2022-10-10T16:29:59.819Z,18.45
2022-10-10T16:32:26.980Z,18.41
2022-10-10T16:34:54.145Z,18.37
2022-10-10T16:37:21.419Z,18.32
2022-10-10T16:39:48.700Z,18.20
2022-10-10T16:42:15.936Z,18.14
2022-10-10T16:44:43.561Z,18.06
2022-10-10T16:47:10.749Z,17.99
2022-10-10T16:49:38.098Z,17.86
2022-10-10T16:52:05.281Z,17.77
2022-10-10T16:54:32.416Z,17.71
2022-10-10T16:56:59.581Z,17.64
2022-10-10T16:59:26.898Z,17.59
2022-10-10T17:01:54.060Z,17.52
2022-10-10T17:04:21.985Z,17.47
2022-10-10T17:06:49.264Z,17.42
2022-10-10T17:09:17.497Z,17.34
2022-10-10T17:11:48.106Z,17.27
2022-10-10T17:14:18.498Z,17.20
2022-10-10T17:17:10.428Z,17.08
2022-10-10T17:19:33.177Z,17.04
2022-10-10T17:22:00.344Z,16.97
2022-10-10T17:24:28.145Z,16.90
2022-10-10T17:26:55.942Z,16.84
2022-10-10T17:29:23.970Z,16.79
2022-10-10T17:31:51.180Z,16.74
2022-10-10T17:34:18.586Z,16.71
2022-10-10T17:36:46.421Z,16.68
2022-10-10T17:39:13.922Z,16.63
2022-10-10T17:41:41.476Z,16.62
2022-10-10T17:44:11.012Z,16.56
2022-10-10T17:46:39.353Z,16.53
2022-10-10T17:49:09.298Z,16.50
2022-10-10T17:51:38.028Z,16.46
2022-10-10T17:54:06.781Z,16.43
2022-10-10T17:56:35.000Z,16.38
2022-10-10T17:59:05.699Z,16.36
2022-10-10T18:01:34.354Z,16.35
2022-10-10T18:04:02.427Z,16.31
2022-10-10T18:06:30.424Z,16.27
2022-10-10T18:08:58.141Z,16.19
2022-10-10T18:11:28.577Z,16.14
2022-10-10T18:14:01.196Z,16.13
2022-10-10T18:16:34.393Z,16.08
2022-10-10T18:19:03.897Z,16.01
2022-10-10T18:21:31.099Z,15.96
2022-10-10T18:23:58.597Z,15.94
2022-10-10T18:26:29.769Z,15.91
2022-10-10T18:28:57.659Z,15.85
2022-10-10T18:31:28.349Z,15.82
2022-10-10T18:33:56.066Z,15.79
2022-10-10T18:36:28.903Z,15.75
2022-10-10T18:38:59.737Z,15.67
2022-10-10T18:41:33.180Z,15.68
2022-10-10T18:44:05.541Z,15.65
2022-10-10T18:46:33.417Z,15.61
2022-10-10T18:49:02.221Z,15.61
2022-10-10T18:51:30.379Z,15.58
2022-10-10T18:54:04.066Z,15.57
2022-10-10T18:56:33.346Z,15.53
2022-10-10T18:59:02.704Z,15.59
2022-10-10T19:01:34.006Z,15.59
2022-10-10T19:04:01.138Z,15.59
2022-10-10T19:06:29.059Z,15.62
2022-10-10T19:08:58.551Z,15.63
2022-10-10T19:11:39.387Z,15.62
2022-10-10T19:14:11.977Z,15.60
2022-10-10T19:16:41.105Z,15.62
2022-10-10T19:19:08.890Z,15.65
2022-10-10T19:21:38.103Z,15.63
2022-10-10T19:24:07.898Z,15.65
2022-10-10T19:26:36.185Z,15.63
2022-10-10T19:29:07.076Z,15.61
2022-10-10T19:31:35.657Z,15.60
2022-10-10T19:34:02.700Z,15.58
2022-10-10T19:36:30.112Z,15.55
2022-10-10T19:38:59.986Z,15.56
2022-10-10T19:41:28.061Z,15.58
2022-10-10T19:43:57.703Z,15.57
2022-10-10T19:46:27.179Z,15.59
2022-10-10T19:48:57.616Z,15.61
2022-10-10T19:51:26.059Z,15.62
2022-10-10T19:53:53.219Z,15.64
2022-10-10T19:56:24.780Z,15.64
2022-10-10T19:58:56.953Z,15.60
2022-10-10T20:01:29.271Z,15.60
2022-10-10T20:03:57.998Z,15.60
2022-10-10T20:06:25.944Z,15.57
2022-10-10T20:08:53.218Z,15.51
2022-10-10T20:11:20.900Z,15.48
2022-10-10T20:13:53.418Z,15.40
2022-10-10T20:16:22.347Z,15.38
2022-10-10T20:18:49.657Z,15.34
2022-10-10T20:21:23.577Z,15.33
2022-10-10T20:23:51.437Z,15.25
2022-10-10T20:26:24.138Z,15.21
2022-10-10T20:28:52.293Z,15.23
2022-10-10T20:31:22.976Z,15.28
2022-10-10T20:33:52.420Z,15.30
2022-10-10T20:36:21.185Z,15.32
2022-10-10T20:39:05.286Z,15.34
2022-10-10T20:41:34.498Z,15.39
2022-10-10T20:44:04.701Z,15.38
2022-10-10T20:46:37.616Z,15.44
2022-10-10T20:49:07.459Z,15.42
2022-10-10T20:51:34.857Z,15.41
2022-10-10T20:54:04.817Z,15.44
2022-10-10T20:56:33.780Z,15.42
2022-10-10T20:59:01.190Z,15.39
2022-10-10T21:01:30.807Z,15.42
2022-10-10T21:03:59.020Z,15.40
2022-10-10T21:06:30.261Z,15.38
2022-10-10T21:09:00.895Z,15.39
2022-10-10T21:11:28.583Z,15.37
2022-10-10T21:13:58.916Z,15.35
2022-10-10T21:16:35.016Z,15.36
2022-10-10T21:19:02.618Z,15.35
2022-10-10T21:21:35.223Z,15.35
2022-10-10T21:24:07.499Z,15.35
2022-10-10T21:26:34.942Z,15.35
2022-10-10T21:29:02.272Z,15.37
2022-10-10T21:31:35.936Z,15.36
2022-10-10T21:34:05.098Z,15.36
2022-10-10T21:36:33.737Z,15.37
2022-10-10T21:39:02.402Z,15.30
2022-10-10T21:41:29.696Z,15.23
2022-10-10T21:43:59.820Z,15.17
2022-10-10T21:46:36.740Z,15.09
2022-10-10T21:49:10.387Z,14.97
2022-10-10T21:51:39.777Z,15.02
2022-10-10T21:54:07.811Z,15.02
2022-10-10T21:56:35.262Z,15.00
2022-10-10T21:59:02.697Z,15.00
2022-10-10T22:01:33.424Z,15.04
2022-10-10T22:04:02.259Z,15.03
2022-10-10T22:06:29.866Z,15.05
2022-10-10T22:08:59.669Z,15.09
2022-10-10T22:11:29.110Z,15.10
2022-10-10T22:13:56.583Z,15.11
2022-10-10T22:16:24.221Z,15.12
2022-10-10T22:18:56.467Z,15.13
2022-10-10T22:21:29.223Z,15.13
2022-10-10T22:23:59.101Z,15.10
2022-10-10T22:26:26.381Z,15.11
2022-10-10T22:28:53.898Z,15.11
2022-10-10T22:31:21.161Z,15.14
2022-10-10T22:33:48.499Z,15.15
2022-10-10T22:36:15.735Z,15.17
2022-10-10T22:38:45.464Z,15.19
2022-10-10T22:41:13.626Z,15.17
2022-10-10T22:43:40.900Z,15.18
2022-10-10T22:46:08.909Z,15.16
2022-10-10T22:48:36.993Z,15.17
2022-10-10T22:51:16.499Z,15.18
2022-10-10T22:53:45.465Z,15.17
2022-10-10T22:56:15.783Z,15.19
2022-10-10T22:58:43.542Z,15.19
2022-10-10T23:01:17.437Z,15.18
2022-10-10T23:03:44.971Z,15.19
2022-10-10T23:06:12.328Z,15.20
2022-10-10T23:08:39.470Z,15.23
2022-10-10T23:11:06.541Z,15.25
2022-10-10T23:13:33.770Z,15.18
2022-10-10T23:16:00.863Z,15.22
2022-10-10T23:18:29.222Z,15.21
2022-10-10T23:20:56.282Z,15.20
2022-10-10T23:23:23.792Z,15.23
2022-10-10T23:25:51.003Z,15.24
2022-10-10T23:28:18.675Z,15.22
2022-10-10T23:30:48.272Z,15.22
2022-10-10T23:33:17.122Z,15.20
2022-10-10T23:35:44.441Z,15.19
2022-10-10T23:38:11.533Z,15.16
2022-10-10T23:40:38.442Z,15.10
2022-10-10T23:43:07.516Z,15.09
2022-10-10T23:45:34.532Z,15.07
2022-10-10T23:48:01.485Z,15.05
2022-10-10T23:50:28.393Z,15.05
2022-10-10T23:52:55.354Z,15.04
2022-10-10T23:55:22.382Z,15.03
2022-10-10T23:57:49.351Z,15.01
